ETD204 OMAA-VABB
Flight info
| Callsign | ETD204 |
|---|---|
| Flight time | N/A |
| Altitude | 39000 |
| Route | KANIP N318 GEVED N881 AMBOS M700 PARAR N571 SUGID KETOR2A |
| Aircraft | A388/J-SADE2E3FGHIJ3J4J5M1RWXY/LB1D1 |
Departure
| Time | 2026-04-30 06:42 |
|---|---|
| Airport | Zayed International Airport (OMAA) |
Arrival
| Time | N/A |
|---|---|
| Airport | Chhatrapati Shivaji Maharaj International Airport (VABB) |
| Time | Latitude | Longitude | Altitude | Speed | Heading |
|---|---|---|---|---|---|
| 2026-04-30 05:49 | 24.44940 | 54.64161 | 98 ft | 0 kts | 34° |
| 2026-04-30 06:26 | 24.44938 | 54.64160 | 94 ft | 2 kts | 33° |
| 2026-04-30 06:26 | 24.44916 | 54.64144 | 96 ft | 4 kts | 31° |
| 2026-04-30 06:26 | 24.44892 | 54.64129 | 95 ft | 4 kts | 29° |
| 2026-04-30 06:27 | 24.44869 | 54.64115 | 97 ft | 4 kts | 32° |
| 2026-04-30 06:27 | 24.44851 | 54.64102 | 94 ft | 4 kts | 47° |
| 2026-04-30 06:27 | 24.44840 | 54.64077 | 94 ft | 4 kts | 72° |
| 2026-04-30 06:27 | 24.44832 | 54.64055 | 91 ft | 4 kts | 66° |
| 2026-04-30 06:28 | 24.44822 | 54.64028 | 96 ft | 4 kts | 66° |
| 2026-04-30 06:28 | 24.44814 | 54.64009 | 95 ft | 0 kts | 66° |
| 2026-04-30 06:32 | 24.44816 | 54.64013 | 93 ft | 3 kts | 66° |
| 2026-04-30 06:33 | 24.44830 | 54.64051 | 91 ft | 8 kts | 77° |
| 2026-04-30 06:33 | 24.44815 | 54.64106 | 97 ft | 8 kts | 145° |
| 2026-04-30 06:33 | 24.44745 | 54.64132 | 96 ft | 13 kts | 164° |
| 2026-04-30 06:33 | 24.44653 | 54.64162 | 96 ft | 9 kts | 163° |
| 2026-04-30 06:34 | 24.44582 | 54.64160 | 96 ft | 11 kts | 211° |
| 2026-04-30 06:34 | 24.44517 | 54.64104 | 96 ft | 13 kts | 220° |
| 2026-04-30 06:34 | 24.44453 | 54.64050 | 94 ft | 8 kts | 205° |
| 2026-04-30 06:34 | 24.44398 | 54.64055 | 96 ft | 9 kts | 138° |
| 2026-04-30 06:35 | 24.44345 | 54.64121 | 95 ft | 14 kts | 128° |
| 2026-04-30 06:35 | 24.44271 | 54.64224 | 96 ft | 20 kts | 128° |
| 2026-04-30 06:35 | 24.44175 | 54.64357 | 95 ft | 24 kts | 128° |
| 2026-04-30 06:35 | 24.44065 | 54.64512 | 96 ft | 27 kts | 128° |
| 2026-04-30 06:36 | 24.43958 | 54.64662 | 95 ft | 25 kts | 128° |
| 2026-04-30 06:36 | 24.43843 | 54.64823 | 94 ft | 28 kts | 128° |
| 2026-04-30 06:36 | 24.43725 | 54.64988 | 95 ft | 28 kts | 128° |
| 2026-04-30 06:36 | 24.43612 | 54.65146 | 93 ft | 25 kts | 128° |
| 2026-04-30 06:37 | 24.43500 | 54.65305 | 96 ft | 28 kts | 128° |
| 2026-04-30 06:37 | 24.43396 | 54.65451 | 96 ft | 26 kts | 128° |
| 2026-04-30 06:37 | 24.43283 | 54.65610 | 96 ft | 22 kts | 128° |
| 2026-04-30 06:37 | 24.43181 | 54.65754 | 96 ft | 26 kts | 128° |
| 2026-04-30 06:38 | 24.43065 | 54.65918 | 95 ft | 29 kts | 128° |
| 2026-04-30 06:38 | 24.42948 | 54.66084 | 96 ft | 28 kts | 127° |
| 2026-04-30 06:38 | 24.42842 | 54.66235 | 96 ft | 25 kts | 128° |
| 2026-04-30 06:38 | 24.42730 | 54.66394 | 96 ft | 28 kts | 128° |
| 2026-04-30 06:39 | 24.42625 | 54.66543 | 96 ft | 25 kts | 128° |
| 2026-04-30 06:39 | 24.42524 | 54.66685 | 95 ft | 21 kts | 128° |
| 2026-04-30 06:39 | 24.42462 | 54.66769 | 95 ft | 10 kts | 150° |
| 2026-04-30 06:39 | 24.42398 | 54.66754 | 93 ft | 12 kts | 222° |
| 2026-04-30 06:40 | 24.42334 | 54.66692 | 87 ft | 14 kts | 219° |
| 2026-04-30 06:40 | 24.42268 | 54.66636 | 65 ft | 8 kts | 218° |
| 2026-04-30 06:40 | 24.42250 | 54.66598 | 72 ft | 4 kts | 289° |
| 2026-04-30 06:40 | 24.42265 | 54.66574 | 72 ft | 5 kts | 309° |
| 2026-04-30 06:41 | 24.42272 | 54.66565 | 68 ft | 0 kts | 309° |
| 2026-04-30 06:41 | 24.42273 | 54.66564 | 68 ft | 1 kts | 309° |
| 2026-04-30 06:41 | 24.42367 | 54.66432 | 68 ft | 60 kts | 307° |
| 2026-04-30 06:41 | 24.42778 | 54.65852 | 70 ft | 128 kts | 308° |
| 2026-04-30 06:42 | 24.43413 | 54.64951 | 131 ft | 164 kts | 307° |
| 2026-04-30 06:42 | 24.44121 | 54.63951 | 568 ft | 170 kts | 306° |
| 2026-04-30 06:42 | 24.44842 | 54.62917 | 951 ft | 169 kts | 310° |
| 2026-04-30 06:42 | 24.45565 | 54.61897 | 1378 ft | 176 kts | 312° |
| 2026-04-30 06:43 | 24.46356 | 54.60813 | 1633 ft | 187 kts | 312° |
| 2026-04-30 06:43 | 24.47212 | 54.59622 | 1837 ft | 211 kts | 312° |
| 2026-04-30 06:43 | 24.48161 | 54.58292 | 2218 ft | 229 kts | 312° |
| 2026-04-30 06:43 | 24.49133 | 54.56916 | 2967 ft | 228 kts | 312° |
| 2026-04-30 06:44 | 24.50117 | 54.55522 | 3526 ft | 235 kts | 311° |
| 2026-04-30 06:44 | 24.51131 | 54.54089 | 3952 ft | 240 kts | 310° |
| 2026-04-30 06:44 | 24.52165 | 54.52642 | 4386 ft | 243 kts | 310° |
| 2026-04-30 06:44 | 24.53217 | 54.51177 | 4822 ft | 246 kts | 310° |
| 2026-04-30 06:45 | 24.54259 | 54.49713 | 5236 ft | 249 kts | 309° |
| 2026-04-30 06:45 | 24.55340 | 54.48184 | 5676 ft | 257 kts | 308° |
| 2026-04-30 06:45 | 24.56447 | 54.46617 | 6113 ft | 262 kts | 307° |
| 2026-04-30 06:45 | 24.57569 | 54.45014 | 6652 ft | 266 kts | 306° |
| 2026-04-30 06:46 | 24.58707 | 54.43427 | 7493 ft | 263 kts | 309° |
| 2026-04-30 06:46 | 24.60163 | 54.42191 | 8212 ft | 271 kts | 335° |
| 2026-04-30 06:46 | 24.62024 | 54.41805 | 8910 ft | 280 kts | 1° |
| 2026-04-30 06:46 | 24.63916 | 54.42381 | 9624 ft | 288 kts | 25° |
| 2026-04-30 06:47 | 24.65644 | 54.43551 | 10284 ft | 294 kts | 33° |
| 2026-04-30 06:47 | 24.67249 | 54.44951 | 10963 ft | 298 kts | 47° |
| 2026-04-30 06:47 | 24.68043 | 54.46226 | 11423 ft | 302 kts | 64° |
| 2026-04-30 06:47 | 24.68621 | 54.48502 | 11709 ft | 321 kts | 88° |
| 2026-04-30 06:48 | 24.68340 | 54.50985 | 11905 ft | 336 kts | 111° |
| 2026-04-30 06:48 | 24.67205 | 54.53272 | 12094 ft | 349 kts | 130° |
| 2026-04-30 06:48 | 24.65622 | 54.55376 | 12338 ft | 364 kts | 133° |
| 2026-04-30 06:48 | 24.64001 | 54.57548 | 12888 ft | 370 kts | 131° |
| 2026-04-30 06:49 | 24.62447 | 54.59833 | 13504 ft | 376 kts | 128° |
| 2026-04-30 06:49 | 24.60952 | 54.62210 | 14071 ft | 380 kts | 127° |
| 2026-04-30 06:49 | 24.59481 | 54.64648 | 14637 ft | 384 kts | 126° |
| 2026-04-30 06:49 | 24.58015 | 54.67118 | 15194 ft | 388 kts | 126° |
| 2026-04-30 06:50 | 24.56534 | 54.69623 | 15756 ft | 392 kts | 127° |
| 2026-04-30 06:50 | 24.55047 | 54.72138 | 16363 ft | 394 kts | 127° |
| 2026-04-30 06:50 | 24.53562 | 54.74642 | 16844 ft | 399 kts | 127° |
| 2026-04-30 06:50 | 24.52034 | 54.77212 | 17380 ft | 403 kts | 127° |
| 2026-04-30 06:51 | 24.50473 | 54.79838 | 17900 ft | 407 kts | 128° |
| 2026-04-30 06:51 | 24.48936 | 54.82420 | 18368 ft | 412 kts | 128° |
| 2026-04-30 06:51 | 24.47363 | 54.85061 | 18845 ft | 415 kts | 128° |
| 2026-04-30 06:51 | 24.45782 | 54.87716 | 19319 ft | 417 kts | 128° |
| 2026-04-30 06:52 | 24.44188 | 54.90391 | 19787 ft | 420 kts | 128° |
| 2026-04-30 06:52 | 24.42583 | 54.93083 | 20233 ft | 423 kts | 128° |
| 2026-04-30 06:52 | 24.40965 | 54.95793 | 20691 ft | 426 kts | 128° |
| 2026-04-30 06:52 | 24.39339 | 54.98516 | 21147 ft | 429 kts | 128° |
| 2026-04-30 06:53 | 24.37701 | 55.01258 | 21592 ft | 431 kts | 128° |
| 2026-04-30 06:53 | 24.36053 | 55.04015 | 22030 ft | 434 kts | 128° |
| 2026-04-30 06:53 | 24.34390 | 55.06796 | 22461 ft | 437 kts | 128° |
| 2026-04-30 06:53 | 24.32719 | 55.09590 | 22891 ft | 440 kts | 128° |
| 2026-04-30 06:54 | 24.31033 | 55.12404 | 23310 ft | 443 kts | 128° |
| 2026-04-30 06:54 | 24.29333 | 55.15243 | 23686 ft | 446 kts | 128° |
| 2026-04-30 06:54 | 24.27627 | 55.18090 | 24070 ft | 448 kts | 128° |
| 2026-04-30 06:54 | 24.25911 | 55.20952 | 24435 ft | 451 kts | 128° |
| 2026-04-30 06:55 | 24.24183 | 55.23831 | 24779 ft | 453 kts | 128° |
| 2026-04-30 06:55 | 24.22446 | 55.26724 | 25152 ft | 455 kts | 128° |
| 2026-04-30 06:55 | 24.20699 | 55.29631 | 25452 ft | 459 kts | 128° |
| 2026-04-30 06:55 | 24.18941 | 55.32555 | 25828 ft | 461 kts | 127° |
| 2026-04-30 06:56 | 24.17343 | 55.35626 | 26183 ft | 468 kts | 119° |
| 2026-04-30 06:56 | 24.16058 | 55.38916 | 26551 ft | 472 kts | 116° |
| 2026-04-30 06:56 | 24.14796 | 55.42244 | 26921 ft | 474 kts | 116° |
| 2026-04-30 06:56 | 24.13518 | 55.45581 | 27308 ft | 477 kts | 116° |
| 2026-04-30 06:57 | 24.12225 | 55.48940 | 27695 ft | 480 kts | 116° |
| 2026-04-30 06:57 | 24.10926 | 55.52310 | 28099 ft | 482 kts | 116° |
| 2026-04-30 06:57 | 24.09616 | 55.55704 | 28451 ft | 486 kts | 116° |
| 2026-04-30 06:57 | 24.08296 | 55.59121 | 28870 ft | 489 kts | 116° |
| 2026-04-30 06:58 | 24.06970 | 55.62555 | 29293 ft | 492 kts | 116° |
| 2026-04-30 06:58 | 24.05544 | 55.65959 | 29687 ft | 492 kts | 121° |
| 2026-04-30 06:58 | 24.03946 | 55.69279 | 30070 ft | 495 kts | 121° |
| 2026-04-30 06:58 | 24.02347 | 55.72626 | 30495 ft | 497 kts | 121° |
| 2026-04-30 06:59 | 24.00748 | 55.75984 | 30926 ft | 499 kts | 121° |
| 2026-04-30 06:59 | 23.99144 | 55.79354 | 31344 ft | 501 kts | 121° |
| 2026-04-30 06:59 | 23.97535 | 55.82736 | 31816 ft | 501 kts | 121° |
| 2026-04-30 06:59 | 23.95905 | 55.86124 | 32059 ft | 506 kts | 121° |
| 2026-04-30 07:00 | 23.94275 | 55.89543 | 32480 ft | 508 kts | 121° |
| 2026-04-30 07:00 | 23.92640 | 55.92971 | 32917 ft | 510 kts | 121° |
| 2026-04-30 07:00 | 23.90997 | 55.96409 | 33309 ft | 512 kts | 121° |
| 2026-04-30 07:00 | 23.89343 | 55.99867 | 33724 ft | 514 kts | 121° |
| 2026-04-30 07:01 | 23.87677 | 56.03345 | 34081 ft | 517 kts | 121° |
| 2026-04-30 07:01 | 23.86005 | 56.06830 | 34456 ft | 518 kts | 121° |
| 2026-04-30 07:01 | 23.84331 | 56.10323 | 34868 ft | 520 kts | 121° |
| 2026-04-30 07:01 | 23.82657 | 56.13813 | 35359 ft | 518 kts | 121° |
| 2026-04-30 07:02 | 23.80986 | 56.17296 | 35844 ft | 517 kts | 121° |
| 2026-04-30 07:02 | 23.79318 | 56.20767 | 36318 ft | 516 kts | 122° |
| 2026-04-30 07:02 | 23.77650 | 56.24237 | 36810 ft | 515 kts | 122° |
| 2026-04-30 07:02 | 23.75985 | 56.27696 | 37293 ft | 514 kts | 122° |
| 2026-04-30 07:03 | 23.74322 | 56.31148 | 37752 ft | 513 kts | 122° |
| 2026-04-30 07:03 | 23.72661 | 56.34595 | 38178 ft | 513 kts | 122° |
| 2026-04-30 07:03 | 23.71003 | 56.38033 | 38652 ft | 511 kts | 122° |
| 2026-04-30 07:03 | 23.69345 | 56.41468 | 38872 ft | 514 kts | 122° |
| 2026-04-30 07:04 | 23.67673 | 56.44925 | 38899 ft | 513 kts | 122° |
| 2026-04-30 07:04 | 23.64347 | 56.51804 | 38901 ft | 514 kts | 122° |
| 2026-04-30 07:05 | 23.59336 | 56.62148 | 38898 ft | 515 kts | 122° |
| 2026-04-30 07:05 | 23.55990 | 56.69045 | 38901 ft | 514 kts | 122° |
| 2026-04-30 07:06 | 23.52644 | 56.75930 | 38894 ft | 514 kts | 122° |
| 2026-04-30 07:06 | 23.49299 | 56.82805 | 38898 ft | 513 kts | 122° |
| 2026-04-30 07:07 | 23.45952 | 56.89672 | 38883 ft | 513 kts | 122° |
| 2026-04-30 07:07 | 23.42604 | 56.96532 | 38898 ft | 513 kts | 122° |
| 2026-04-30 07:08 | 23.39273 | 57.03350 | 38902 ft | 514 kts | 122° |
| 2026-04-30 07:08 | 23.35956 | 57.10239 | 38907 ft | 515 kts | 121° |
| 2026-04-30 07:09 | 23.32823 | 57.17250 | 38865 ft | 515 kts | 120° |
| 2026-04-30 07:09 | 23.29670 | 57.24199 | 38890 ft | 511 kts | 120° |
| 2026-04-30 07:10 | 23.26544 | 57.31143 | 38902 ft | 512 kts | 120° |
| 2026-04-30 07:10 | 23.23388 | 57.38106 | 38917 ft | 514 kts | 121° |
| 2026-04-30 07:11 | 23.20213 | 57.45077 | 38939 ft | 515 kts | 121° |
| 2026-04-30 07:11 | 23.17026 | 57.52063 | 38937 ft | 517 kts | 121° |
| 2026-04-30 07:12 | 23.13830 | 57.59063 | 38965 ft | 516 kts | 121° |
| 2026-04-30 07:12 | 23.10635 | 57.66050 | 38950 ft | 516 kts | 121° |
| 2026-04-30 07:13 | 23.07445 | 57.73014 | 38936 ft | 515 kts | 121° |
| 2026-04-30 07:13 | 23.04307 | 57.79995 | 38922 ft | 515 kts | 116° |
| 2026-04-30 07:14 | 23.02279 | 57.87499 | 38888 ft | 522 kts | 103° |
| 2026-04-30 07:14 | 23.01802 | 57.95392 | 38872 ft | 527 kts | 92° |
| 2026-04-30 07:15 | 23.01826 | 58.03335 | 38868 ft | 526 kts | 93° |
| 2026-04-30 07:15 | 23.01819 | 58.11276 | 38855 ft | 526 kts | 93° |
| 2026-04-30 07:16 | 23.01810 | 58.19210 | 38840 ft | 526 kts | 93° |
| 2026-04-30 07:16 | 23.01800 | 58.27137 | 38843 ft | 525 kts | 93° |
| 2026-04-30 07:17 | 23.01786 | 58.35056 | 38855 ft | 525 kts | 93° |
| 2026-04-30 07:18 | 23.01986 | 58.46943 | 38854 ft | 526 kts | 90° |
| 2026-04-30 07:18 | 23.02245 | 58.54881 | 38844 ft | 526 kts | 91° |
| 2026-04-30 07:19 | 23.02485 | 58.62810 | 38829 ft | 525 kts | 91° |
| 2026-04-30 07:19 | 23.02713 | 58.70726 | 38824 ft | 525 kts | 91° |
| 2026-04-30 07:20 | 23.02936 | 58.78645 | 38822 ft | 525 kts | 91° |
| 2026-04-30 07:20 | 23.03156 | 58.86563 | 38816 ft | 525 kts | 91° |
| 2026-04-30 07:21 | 23.03369 | 58.94468 | 38830 ft | 522 kts | 90° |
| 2026-04-30 07:21 | 23.03580 | 59.02359 | 38817 ft | 523 kts | 91° |
| 2026-04-30 07:22 | 23.03892 | 59.14205 | 38819 ft | 524 kts | 91° |
| 2026-04-30 07:22 | 23.04095 | 59.22123 | 38815 ft | 525 kts | 91° |
| 2026-04-30 07:23 | 23.04294 | 59.30056 | 38821 ft | 526 kts | 91° |
| 2026-04-30 07:23 | 23.04489 | 59.37995 | 38812 ft | 526 kts | 91° |
| 2026-04-30 07:24 | 23.04680 | 59.45933 | 38812 ft | 526 kts | 91° |
| 2026-04-30 07:24 | 23.04867 | 59.53870 | 38809 ft | 525 kts | 91° |
| 2026-04-30 07:25 | 23.05049 | 59.61789 | 38797 ft | 524 kts | 91° |
| 2026-04-30 07:25 | 23.05227 | 59.69686 | 38805 ft | 523 kts | 91° |
| 2026-04-30 07:26 | 23.05401 | 59.77574 | 38791 ft | 522 kts | 91° |
| 2026-04-30 07:26 | 23.05569 | 59.85444 | 38787 ft | 521 kts | 92° |
| 2026-04-30 07:27 | 23.05078 | 59.93249 | 38787 ft | 516 kts | 101° |
| 2026-04-30 07:27 | 23.03946 | 59.99597 | 38776 ft | 515 kts | 104° |
| 2026-04-30 07:28 | 23.02566 | 60.07217 | 38784 ft | 515 kts | 104° |
| 2026-04-30 07:28 | 23.01188 | 60.14843 | 38785 ft | 515 kts | 104° |
| 2026-04-30 07:29 | 22.99800 | 60.22467 | 38783 ft | 515 kts | 104° |
| 2026-04-30 07:29 | 22.98405 | 60.30098 | 38803 ft | 516 kts | 104° |
| 2026-04-30 07:30 | 22.96302 | 60.41559 | 38803 ft | 517 kts | 104° |
| 2026-04-30 07:31 | 22.94893 | 60.49208 | 38802 ft | 517 kts | 103° |
| 2026-04-30 07:31 | 22.93482 | 60.56848 | 38810 ft | 516 kts | 103° |
| 2026-04-30 07:32 | 22.92068 | 60.64484 | 38811 ft | 516 kts | 103° |
| 2026-04-30 07:32 | 22.90652 | 60.72114 | 38806 ft | 516 kts | 103° |
| 2026-04-30 07:33 | 22.89233 | 60.79734 | 38797 ft | 515 kts | 103° |
| 2026-04-30 07:33 | 22.87811 | 60.87347 | 38799 ft | 515 kts | 103° |
| 2026-04-30 07:34 | 22.86386 | 60.94959 | 38794 ft | 515 kts | 103° |
| 2026-04-30 07:34 | 22.84957 | 61.02568 | 38799 ft | 515 kts | 103° |
| 2026-04-30 07:35 | 22.83524 | 61.10180 | 38796 ft | 515 kts | 103° |
| 2026-04-30 07:35 | 22.82088 | 61.17786 | 38796 ft | 515 kts | 103° |
| 2026-04-30 07:36 | 22.80649 | 61.25388 | 38808 ft | 515 kts | 103° |
| 2026-04-30 07:36 | 22.79208 | 61.32985 | 38806 ft | 514 kts | 103° |
| 2026-04-30 07:37 | 22.77763 | 61.40577 | 38799 ft | 514 kts | 103° |
| 2026-04-30 07:37 | 22.76315 | 61.48165 | 38793 ft | 514 kts | 103° |
| 2026-04-30 07:38 | 22.74864 | 61.55749 | 38803 ft | 514 kts | 103° |
| 2026-04-30 07:38 | 22.73411 | 61.63330 | 38800 ft | 514 kts | 103° |
| 2026-04-30 07:39 | 22.71953 | 61.70913 | 38798 ft | 514 kts | 103° |
| 2026-04-30 07:39 | 22.70492 | 61.78489 | 38798 ft | 514 kts | 103° |
| 2026-04-30 07:40 | 22.69037 | 61.86020 | 38790 ft | 514 kts | 103° |
| 2026-04-30 07:40 | 22.67570 | 61.93590 | 38796 ft | 514 kts | 103° |
| 2026-04-30 07:41 | 22.66087 | 62.01220 | 38790 ft | 514 kts | 103° |
| 2026-04-30 07:41 | 22.64620 | 62.08749 | 38791 ft | 514 kts | 103° |
| 2026-04-30 07:42 | 22.63141 | 62.16325 | 38798 ft | 515 kts | 103° |
| 2026-04-30 07:42 | 22.61657 | 62.23901 | 38800 ft | 515 kts | 103° |
| 2026-04-30 07:43 | 22.60157 | 62.31537 | 38794 ft | 515 kts | 103° |